ドゥアラ国際空港の過去48時間の天気

ドゥアラ国際空港 (Douala Obs.)

現在時刻: 5/26 03:59 WAT (5/26 02:59 UTC) 以下の時間は現地時間です。

過去48時間のMETAR気象情報
時間 風向 風速(m/s) 視程 気温(℃) 湿度(%) 気圧(hPa) 天気現象
26 03:00 東南東 2 8000m 25 100 1014
26 02:00 不定 1 8000m 26 100 1014
26 01:00 東南東 1 8000m 25 100 1015
25 15:00 不定 2 10km以上 31 66 1013
25 14:00 不定 1 10km以上 31 66 1014
25 13:00 南東 2 10km以上 30 70 1015
25 12:00 不定 1 10km以上 30 70 1016
25 11:00 不定 1 7000m 30 75 1016
25 10:00 不定 1 4000m 27 94 1016 もや
25 09:00 不定 1 3200m 26 100 1016 もや
25 08:00 静穏 0 6000m 25 100 1016 弱い雨 弱い霧雨
25 07:00 静穏 0 7000m 25 100 1015 周辺でしゅう雨
25 06:00 不定 1 7000m 25 100 1014 弱い雨
25 05:00 西北西 2 6000m 25 100 1013 弱い雨
25 04:00 不定 1 6000m 25 100 1013 弱いしゅう雨
25 03:00 不定 1 10km以上 25 100 1013
25 02:00 不定 1 10km以上 25 100 1013
24 15:00 不定 2 10km以上 30 66 1011
24 14:00 3 10km以上 31 70 1012
24 13:00 不定 2 10km以上 32 59 1013
24 12:00 不定 2 10km以上 30 70 1014
24 11:00 不定 1 10km以上 29 74 1014
24 10:00 不定 2 10km以上 30 70 1015
24 09:00 南東 2 8000m 27 84 1014
24 08:00 不定 1 6000m 26 89 1014
24 07:00 静穏 0 4000m 24 100 1013 もや
24 06:00 静穏 0 6000m 23 100 1013
24 05:00 静穏 0 10km以上 23 100 1013
24 04:00 不定 1 10km以上 24 100 1012
FKKD 260200Z 11003KT 090V150 8000 TS BKN014 FEW016CB 25/25 Q1014 NOSIG
FKKD 260100Z VRB02KT 8000 BKN014 FEW016CB 26/26 Q1014 TEMPO TS
FKKD 260000Z 11002KT 8000 BKN013 FEW016CB 25/25 Q1015 NOSIG
FKKD 251400Z VRB03KT 9999 SCT016 FEW020CB 31/24 Q1013 NOSIG
FKKD 251300Z VRB02KT 9999 BKN016 FEW020CB 31/24 Q1014 NOSIG
FKKD 251200Z 13003KT 100V170 9999 BKN016 FEW020CB 30/24 Q1015 NOSIG
FKKD 251100Z VRB02KT 9999 BKN016 FEW020CB 30/24 Q1016 NOSIG
FKKD 251000Z VRB02KT 7000 BKN014 FEW016CB 30/25 Q1016 NOSIG
FKKD 250900Z VRB02KT 4000 BR BKN013 FEW015CB 27/26 Q1016 BECMG 6000 NSW
FKKD 250800Z VRB02KT 3200 BR FEW006 BKN012 FEW015CB 26/26 Q1016 TEMPO 2000 BR
FKKD 250700Z 00000KT 6000 -RADZ SCT006 BKN012 FEW015CB 25/25 Q1016 TEMPO 4000 -RADZ
FKKD 250600Z 00000KT 7000 VCSH BKN013 FEW016CB 25/25 Q1015 TEMPO 4000 TSRA
FKKD 250500Z VRB01KT 7000 -RA BKN013 FEW016CB 25/25 Q1014 TEMPO 3000 TSRA
FKKD 250400Z 30003KT 230V330 6000 -RA FEW004 BKN013 FEW016CB 25/25 Q1013 NOSIG
FKKD 250300Z VRB02KT 6000 -SHRA FEW006 BKN012 FEW016CB 25/25 Q1013 NOSIG
FKKD 250200Z VRB01KT 9999 BKN013 FEW016CB 25/25 Q1013 NOSIG
FKKD 250100Z VRB02KT 9999 BKN013 FEW016CB 25/25 Q1013 NOSIG
FKKD 241400Z VRB04KT 9999 BKN016 FEW020CB 30/23 Q1011 NOSIG
FKKD 241300Z VRB05KT 9999 BKN016 FEW020CB 31/25 Q1012 NOSIG
FKKD 241200Z VRB04KT 9999 BKN016 FEW020CB 32/23 Q1013 NOSIG
FKKD 241100Z VRB03KT 9999 BKN016 FEW020CB 30/24 Q1014 NOSIG
FKKD 241000Z VRB02KT 9999 BKN016 FEW020CB 29/24 Q1014 NOSIG
FKKD 240900Z VRB03KT 9999 BKN016 FEW020CB 30/24 Q1015 NOSIG
FKKD 240800Z 13003KT 090V180 8000 SCT013 FEW016CB 27/24 Q1014 NOSIG
FKKD 240700Z VRB02KT 6000 SCT013 FEW016CB 26/24 Q1014 NOSIG
FKKD 240600Z 00000KT 4000 BR SCT013 FEW016CB 24/24 Q1013 BECMG 2000 BR
FKKD 240500Z 00000KT 6000 SCT013 FEW016CB 23/23 Q1013 BECMG 2000 BR
FKKD 240400Z 00000KT 9999 SCT013 FEW016CB 23/23 Q1013 NOSIG
FKKD 240300Z VRB01KT 9999 SCT013 FEW016CB 24/24 Q1012 NOSIG